createdAt,value
2023-03-12T00:01:17.496Z,2.40
2023-03-12T00:03:44.288Z,2.97
2023-03-12T00:06:11.288Z,2.33
2023-03-12T00:08:38.336Z,2.50
2023-03-12T00:11:12.452Z,2.58
2023-03-12T00:13:39.866Z,1.85
2023-03-12T00:16:11.172Z,2.58
2023-03-12T00:18:38.194Z,2.25
2023-03-12T00:21:05.017Z,2.58
2023-03-12T00:23:31.561Z,2.85
2023-03-12T00:26:01.620Z,2.42
2023-03-12T00:28:29.550Z,2.13
2023-03-12T00:30:57.294Z,2.40
2023-03-12T00:33:24.899Z,2.35
2023-03-12T00:35:53.179Z,2.13
2023-03-12T00:38:20.208Z,2.40
2023-03-12T00:40:48.414Z,2.30
2023-03-12T00:43:15.157Z,2.40
2023-03-12T00:45:41.679Z,2.55
2023-03-12T00:48:08.238Z,2.10
2023-03-12T00:50:34.876Z,2.03
2023-03-12T00:53:01.523Z,2.47
2023-03-12T00:55:29.582Z,2.60
2023-03-12T00:57:56.186Z,2.75
2023-03-12T01:00:24.386Z,2.58
2023-03-12T01:02:51.001Z,2.70
2023-03-12T01:05:17.877Z,2.33
2023-03-12T01:07:44.339Z,3.10
2023-03-12T01:10:13.253Z,2.88
2023-03-12T01:12:39.657Z,3.53
2023-03-12T01:15:06.490Z,3.08
2023-03-12T01:17:33.021Z,3.30
2023-03-12T01:19:59.745Z,3.30
2023-03-12T01:22:26.326Z,2.97
2023-03-12T01:24:52.875Z,3.58
2023-03-12T01:27:21.004Z,3.20
2023-03-12T01:29:47.587Z,2.85
2023-03-12T01:32:14.184Z,3.47
2023-03-12T01:34:40.784Z,3.45
2023-03-12T01:37:07.575Z,3.67
2023-03-12T01:39:34.295Z,3.42
2023-03-12T01:42:01.867Z,2.97
2023-03-12T01:44:29.135Z,3.95
2023-03-12T01:46:55.740Z,4.50
2023-03-12T01:49:26.085Z,3.67
2023-03-12T01:52:01.396Z,3.67
2023-03-12T01:54:32.334Z,3.25
2023-03-12T01:57:00.559Z,4.13
2023-03-12T01:59:47.412Z,3.90
2023-03-12T02:02:14.856Z,3.40
2023-03-12T02:04:43.417Z,3.53
2023-03-12T02:07:12.013Z,4.30
2023-03-12T02:09:40.834Z,3.53
2023-03-12T02:12:07.748Z,3.67
2023-03-12T02:14:34.507Z,4.15
2023-03-12T02:17:01.137Z,3.42
2023-03-12T02:19:33.641Z,3.42
2023-03-12T02:22:00.470Z,3.58
2023-03-12T02:24:27.102Z,4.15
2023-03-12T02:26:53.824Z,3.50
2023-03-12T02:29:20.467Z,3.97
2023-03-12T02:31:52.000Z,3.90
2023-03-12T02:34:21.528Z,3.72
2023-03-12T02:36:48.477Z,3.85
2023-03-12T02:39:15.018Z,4.43
2023-03-12T02:41:44.723Z,4.13
2023-03-12T02:44:17.022Z,3.88
2023-03-12T02:46:55.041Z,4.00
2023-03-12T02:49:23.477Z,4.15
2023-03-12T02:51:50.172Z,4.10
2023-03-12T02:54:17.910Z,3.85
2023-03-12T02:56:45.133Z,3.92
2023-03-12T02:59:13.783Z,3.55
2023-03-12T03:01:43.206Z,3.53
2023-03-12T03:04:11.002Z,3.88
2023-03-12T03:06:39.065Z,3.47
2023-03-12T03:09:05.788Z,3.15
2023-03-12T03:11:32.239Z,3.08
2023-03-12T03:14:00.985Z,3.15
2023-03-12T03:16:27.508Z,3.33
2023-03-12T03:18:57.126Z,3.55
2023-03-12T03:21:23.706Z,3.45
2023-03-12T03:23:50.574Z,3.72
2023-03-12T03:26:18.742Z,3.90
2023-03-12T03:28:45.497Z,3.75
2023-03-12T03:31:13.024Z,4.07
2023-03-12T03:33:41.137Z,3.78
2023-03-12T03:36:09.611Z,3.80
2023-03-12T03:38:41.916Z,4.15
2023-03-12T03:41:09.004Z,3.70
2023-03-12T03:43:40.963Z,4.15
2023-03-12T03:46:11.578Z,3.80
2023-03-12T03:48:41.703Z,3.72
2023-03-12T03:51:10.013Z,4.32
2023-03-12T03:53:40.926Z,3.40
2023-03-12T03:56:08.406Z,3.42
2023-03-12T03:58:39.964Z,3.30
2023-03-12T04:01:06.830Z,3.25
2023-03-12T04:03:33.904Z,2.95
2023-03-12T04:06:02.901Z,3.35
2023-03-12T04:08:30.547Z,3.38
2023-03-12T04:10:57.003Z,3.15
2023-03-12T04:13:24.044Z,3.38
2023-03-12T04:15:52.035Z,3.50
2023-03-12T04:18:19.504Z,3.22
2023-03-12T04:20:46.156Z,3.28
2023-03-12T04:23:12.806Z,3.40
2023-03-12T04:25:39.338Z,2.97
2023-03-12T04:28:06.879Z,3.10
2023-03-12T04:30:34.758Z,3.33
2023-03-12T04:33:01.446Z,3.47
2023-03-12T04:35:28.278Z,3.95
2023-03-12T04:37:55.499Z,4.78
2023-03-12T04:40:22.510Z,3.67
2023-03-12T04:42:49.122Z,4.20
2023-03-12T04:45:16.234Z,3.50
2023-03-12T04:47:45.607Z,3.67
2023-03-12T04:50:13.258Z,5.38
2023-03-12T04:52:39.961Z,3.47
2023-03-12T04:55:07.865Z,3.25
2023-03-12T04:57:34.793Z,3.08
2023-03-12T05:00:01.527Z,3.05
2023-03-12T05:02:28.229Z,3.55
2023-03-12T05:04:56.070Z,3.00
2023-03-12T05:07:23.268Z,3.35
2023-03-12T05:09:49.868Z,3.58
2023-03-12T05:12:16.403Z,3.00
2023-03-12T05:14:42.934Z,3.50
2023-03-12T05:17:09.629Z,3.67
2023-03-12T05:19:36.328Z,3.53
2023-03-12T05:22:02.846Z,3.53
2023-03-12T05:24:31.022Z,3.55
2023-03-12T05:26:58.548Z,3.50
2023-03-12T05:29:25.190Z,3.60
2023-03-12T05:31:53.160Z,3.22
2023-03-12T05:34:19.878Z,3.38
2023-03-12T05:36:46.765Z,3.55
2023-03-12T05:39:17.444Z,3.20
2023-03-12T05:41:44.066Z,3.60
2023-03-12T05:44:16.075Z,4.20
2023-03-12T05:46:45.727Z,4.30
2023-03-12T05:49:12.224Z,4.50
2023-03-12T05:51:38.774Z,2.83
2023-03-12T05:54:06.251Z,3.00
2023-03-12T05:56:32.873Z,3.33
2023-03-12T05:59:00.040Z,4.50
2023-03-12T06:01:27.884Z,4.18
2023-03-12T06:03:56.801Z,3.95
2023-03-12T06:06:24.756Z,4.05
2023-03-12T06:08:51.595Z,4.35
2023-03-12T06:11:18.631Z,4.85
2023-03-12T06:13:45.357Z,4.38
2023-03-12T06:16:15.958Z,4.40
2023-03-12T06:18:42.523Z,3.97
2023-03-12T06:21:16.456Z,4.10
2023-03-12T06:23:44.970Z,4.35
2023-03-12T06:26:16.494Z,4.28
2023-03-12T06:28:44.968Z,3.70
2023-03-12T06:31:11.506Z,4.30
2023-03-12T06:33:39.482Z,4.50
2023-03-12T06:36:07.278Z,4.80
2023-03-12T06:38:33.984Z,5.15
2023-03-12T06:41:02.037Z,4.90
2023-03-12T06:43:29.594Z,5.90
2023-03-12T06:45:56.716Z,6.03
2023-03-12T06:48:23.996Z,6.20
2023-03-12T06:50:51.422Z,6.10
2023-03-12T06:53:18.710Z,5.07
2023-03-12T06:55:45.720Z,8.05
2023-03-12T06:58:12.541Z,4.70
2023-03-12T07:00:39.277Z,3.47
2023-03-12T07:03:05.849Z,3.65
2023-03-12T07:05:32.500Z,2.95
2023-03-12T07:07:59.210Z,2.75
2023-03-12T07:10:28.107Z,2.78
2023-03-12T07:12:55.125Z,2.80
2023-03-12T07:15:21.883Z,2.05
2023-03-12T07:17:48.562Z,2.17
2023-03-12T07:20:15.103Z,1.98
2023-03-12T07:22:42.714Z,1.33
2023-03-12T07:25:09.880Z,1.13
2023-03-12T07:27:36.671Z,1.10
2023-03-12T07:30:03.386Z,1.38
2023-03-12T07:32:30.629Z,0.95
2023-03-12T07:34:57.407Z,1.20
2023-03-12T07:37:23.909Z,1.40
2023-03-12T07:39:53.023Z,1.70
2023-03-12T07:42:20.648Z,2.67
2023-03-12T07:44:47.351Z,3.05
2023-03-12T07:47:23.670Z,1.08
2023-03-12T07:49:51.300Z,0.70
2023-03-12T07:52:20.071Z,1.10
2023-03-12T07:54:46.729Z,1.30
2023-03-12T07:57:13.383Z,1.40
2023-03-12T07:59:40.296Z,1.27
2023-03-12T08:02:06.883Z,1.45
2023-03-12T08:04:33.548Z,1.25
2023-03-12T08:07:00.275Z,1.33
2023-03-12T08:09:26.771Z,1.58
2023-03-12T08:11:53.394Z,1.27
2023-03-12T08:14:20.046Z,1.38
2023-03-12T08:16:46.857Z,1.30
2023-03-12T08:19:13.413Z,1.50
2023-03-12T08:21:39.871Z,1.10
2023-03-12T08:24:06.494Z,1.10
2023-03-12T08:26:33.053Z,1.38
2023-03-12T08:29:00.504Z,1.08
2023-03-12T08:31:28.138Z,1.02
2023-03-12T08:33:54.838Z,1.40
2023-03-12T08:36:22.577Z,1.20
2023-03-12T08:38:49.278Z,0.90
2023-03-12T08:41:15.781Z,1.00
2023-03-12T08:43:42.348Z,1.20
2023-03-12T08:46:11.817Z,1.33
2023-03-12T08:48:39.343Z,1.20
2023-03-12T08:51:08.109Z,1.08
2023-03-12T08:53:36.292Z,1.15
2023-03-12T08:56:03.592Z,1.33
2023-03-12T08:58:30.541Z,1.40
2023-03-12T09:00:57.340Z,1.45
2023-03-12T09:03:24.028Z,1.40
2023-03-12T09:05:51.156Z,2.47
2023-03-12T09:08:17.851Z,1.58
2023-03-12T09:10:48.846Z,2.20
2023-03-12T09:13:15.646Z,1.50
2023-03-12T09:15:42.087Z,2.85
2023-03-12T09:18:08.688Z,1.90
2023-03-12T09:20:35.406Z,2.00
2023-03-12T09:23:01.839Z,1.33
2023-03-12T09:25:28.305Z,1.30
2023-03-12T09:27:54.844Z,1.50
2023-03-12T09:30:22.366Z,1.92
2023-03-12T09:32:48.972Z,1.55
2023-03-12T09:35:16.252Z,2.05
2023-03-12T09:37:43.661Z,1.73
2023-03-12T09:40:17.872Z,2.05
2023-03-12T09:42:48.071Z,2.10
2023-03-12T09:45:16.819Z,1.90
2023-03-12T09:47:47.022Z,1.85
2023-03-12T09:50:13.493Z,1.77
2023-03-12T09:52:44.390Z,1.60
2023-03-12T09:55:15.039Z,1.80
2023-03-12T09:57:41.920Z,1.95
2023-03-12T10:00:12.362Z,2.03
2023-03-12T10:02:56.938Z,2.05
2023-03-12T10:05:26.277Z,1.92
2023-03-12T10:07:57.825Z,2.10
2023-03-12T10:10:39.623Z,1.70
2023-03-12T10:13:18.587Z,1.88
2023-03-12T10:15:45.305Z,1.55
2023-03-12T10:18:11.848Z,1.73
2023-03-12T10:20:48.107Z,1.65
2023-03-12T10:23:28.166Z,1.77
2023-03-12T10:25:57.729Z,2.10
2023-03-12T10:28:44.413Z,1.92
2023-03-12T10:31:18.311Z,1.70
2023-03-12T10:33:47.843Z,1.50
2023-03-12T10:36:16.992Z,2.08
2023-03-12T10:38:43.585Z,1.95
2023-03-12T10:41:14.161Z,2.03
2023-03-12T10:43:40.954Z,1.67
2023-03-12T10:46:13.639Z,1.60
2023-03-12T10:48:40.376Z,1.65
2023-03-12T10:51:08.140Z,1.70
2023-03-12T10:53:49.962Z,1.60
2023-03-12T10:56:20.493Z,2.05
2023-03-12T10:58:48.286Z,1.80
2023-03-12T11:01:14.826Z,1.85
2023-03-12T11:03:42.502Z,1.80
2023-03-12T11:06:15.848Z,2.00
2023-03-12T11:08:43.121Z,1.70
2023-03-12T11:11:09.857Z,1.58
2023-03-12T11:13:36.479Z,1.55
2023-03-12T11:16:21.140Z,1.48
2023-03-12T11:19:00.388Z,1.42
2023-03-12T11:21:27.045Z,1.80
2023-03-12T11:23:56.303Z,2.00
2023-03-12T11:26:24.134Z,1.60
2023-03-12T11:28:52.368Z,1.60
2023-03-12T11:31:22.009Z,1.30
2023-03-12T11:33:48.771Z,1.33
2023-03-12T11:36:21.873Z,1.60
2023-03-12T11:38:51.160Z,1.40
2023-03-12T11:41:20.401Z,1.55
2023-03-12T11:44:12.308Z,1.40
2023-03-12T11:46:51.884Z,1.40
2023-03-12T11:49:26.945Z,1.63
2023-03-12T11:52:02.509Z,1.40
2023-03-12T11:56:59.010Z,1.33
2023-03-12T11:59:31.698Z,1.33
2023-03-12T12:01:58.284Z,1.35
2023-03-12T12:04:30.800Z,1.67
2023-03-12T12:06:57.402Z,1.40
2023-03-12T12:09:32.248Z,1.45
2023-03-12T12:11:58.717Z,1.60
2023-03-12T12:14:42.385Z,1.65
2023-03-12T12:17:27.782Z,1.75
2023-03-12T12:20:10.216Z,1.50
2023-03-12T12:22:51.055Z,1.67
2023-03-12T12:25:29.664Z,2.17
2023-03-12T12:28:16.387Z,1.80
2023-03-12T12:30:51.610Z,1.40
2023-03-12T12:33:18.191Z,1.80
2023-03-12T12:35:47.435Z,1.50
2023-03-12T12:38:30.431Z,1.73
2023-03-12T12:41:03.609Z,2.30
2023-03-12T12:43:32.618Z,2.22
2023-03-12T12:46:28.400Z,2.22
2023-03-12T12:48:57.326Z,2.10
2023-03-12T12:51:27.202Z,2.17
2023-03-12T12:53:53.700Z,1.85
2023-03-12T12:56:29.387Z,1.88
2023-03-12T12:59:07.179Z,1.92
2023-03-12T13:01:35.073Z,1.90
2023-03-12T13:04:04.734Z,2.00
2023-03-12T13:06:51.330Z,1.80
2023-03-12T13:09:21.360Z,1.90
2023-03-12T13:11:49.215Z,2.33
2023-03-12T13:14:34.502Z,1.92
2023-03-12T13:17:21.867Z,1.50
2023-03-12T13:19:58.959Z,1.60
2023-03-12T13:22:27.109Z,1.70
2023-03-12T13:25:02.820Z,1.85
2023-03-12T13:27:31.078Z,1.85
2023-03-12T13:29:58.063Z,1.92
2023-03-12T13:32:36.922Z,2.00
2023-03-12T13:35:15.470Z,2.10
2023-03-12T13:37:58.721Z,2.20
2023-03-12T13:40:37.458Z,1.90
2023-03-12T13:43:09.842Z,2.30
2023-03-12T13:45:58.347Z,2.35
2023-03-12T13:48:25.745Z,2.20
2023-03-12T13:50:55.249Z,2.33
2023-03-12T13:53:26.747Z,2.30
2023-03-12T13:56:01.720Z,1.90
2023-03-12T13:58:28.717Z,1.70
2023-03-12T14:01:06.956Z,1.85
2023-03-12T14:03:35.717Z,2.17
2023-03-12T14:06:04.992Z,2.33
2023-03-12T14:08:46.779Z,2.33
2023-03-12T14:11:16.377Z,2.28
2023-03-12T14:14:06.030Z,1.85
2023-03-12T14:16:40.098Z,1.70
2023-03-12T14:19:07.745Z,2.15
2023-03-12T14:21:36.014Z,2.00
2023-03-12T14:24:04.887Z,2.45
2023-03-12T14:26:36.286Z,2.70
2023-03-12T14:29:05.720Z,2.40
2023-03-12T14:31:32.550Z,2.08
2023-03-12T14:33:59.082Z,2.10
2023-03-12T14:36:27.734Z,2.08
2023-03-12T14:38:58.373Z,2.00
2023-03-12T14:41:31.189Z,2.53
2023-03-12T14:44:04.161Z,2.20
2023-03-12T14:46:30.770Z,2.40
2023-03-12T14:48:57.685Z,2.25
2023-03-12T14:51:24.628Z,1.73
2023-03-12T14:53:51.221Z,2.25
2023-03-12T14:56:25.748Z,2.13
2023-03-12T14:58:52.615Z,2.42
2023-03-12T15:01:21.040Z,3.67
2023-03-12T15:03:50.120Z,2.30
2023-03-12T15:06:35.337Z,2.03
2023-03-12T15:09:04.349Z,2.30
2023-03-12T15:11:32.484Z,2.17
2023-03-12T15:14:03.662Z,2.30
2023-03-12T15:16:30.517Z,2.47
2023-03-12T15:18:57.282Z,2.28
2023-03-12T15:21:24.172Z,2.20
2023-03-12T15:23:50.727Z,2.20
2023-03-12T15:26:20.022Z,2.08
2023-03-12T15:28:59.029Z,1.77
2023-03-12T15:31:25.988Z,1.63
2023-03-12T15:34:06.265Z,2.50
2023-03-12T15:36:34.204Z,2.00
2023-03-12T15:39:01.215Z,2.00
2023-03-12T15:41:27.745Z,2.55
2023-03-12T15:43:58.139Z,2.33
2023-03-12T15:46:26.146Z,2.05
2023-03-12T15:48:54.969Z,2.20
2023-03-12T15:51:27.161Z,2.25
2023-03-12T15:54:04.590Z,1.90
2023-03-12T15:56:34.801Z,2.40
2023-03-12T15:59:16.767Z,2.15
2023-03-12T16:01:44.399Z,1.95
2023-03-12T16:04:10.843Z,1.73
2023-03-12T16:06:37.453Z,2.00
2023-03-12T16:09:04.366Z,2.15
2023-03-12T16:11:32.270Z,1.50
2023-03-12T16:14:03.065Z,1.60
2023-03-12T16:16:29.724Z,1.70
2023-03-12T16:18:56.349Z,1.70
2023-03-12T16:21:22.815Z,1.50
2023-03-12T16:23:49.481Z,1.52
2023-03-12T16:26:16.084Z,1.65
2023-03-12T16:28:43.000Z,1.70
2023-03-12T16:31:16.029Z,1.70
2023-03-12T16:33:43.606Z,1.42
2023-03-12T16:36:14.351Z,1.80
2023-03-12T16:38:40.897Z,1.55
2023-03-12T16:41:10.215Z,1.63
2023-03-12T16:43:37.057Z,1.42
2023-03-12T16:46:07.782Z,1.77
2023-03-12T16:48:34.385Z,1.88
2023-03-12T16:51:00.875Z,1.58
2023-03-12T16:53:27.353Z,1.48
2023-03-12T16:55:55.662Z,1.52
2023-03-12T16:58:22.916Z,1.50
2023-03-12T17:00:50.150Z,1.40
2023-03-12T17:03:37.062Z,1.30
2023-03-12T17:06:05.658Z,1.48
2023-03-12T17:08:32.180Z,1.17
2023-03-12T17:10:59.772Z,1.40
2023-03-12T17:13:27.866Z,1.30
2023-03-12T17:15:55.450Z,1.20
2023-03-12T17:18:22.539Z,1.40
2023-03-12T17:20:49.281Z,1.00
2023-03-12T17:23:15.723Z,1.08
2023-03-12T17:25:43.342Z,1.20
2023-03-12T17:28:10.031Z,1.20
2023-03-12T17:30:37.077Z,1.17
2023-03-12T17:33:05.506Z,1.17
2023-03-12T17:35:32.287Z,1.45
2023-03-12T17:37:59.057Z,0.98
2023-03-12T17:40:26.680Z,1.17
2023-03-12T17:42:53.238Z,1.30
2023-03-12T17:45:19.926Z,1.00
2023-03-12T17:47:46.569Z,1.08
2023-03-12T17:50:13.099Z,1.48
2023-03-12T17:52:39.561Z,1.20
2023-03-12T17:55:06.845Z,1.40
2023-03-12T17:57:33.367Z,1.10
2023-03-12T17:59:59.971Z,1.05
2023-03-12T18:02:27.241Z,1.02
2023-03-12T18:04:54.032Z,1.08
2023-03-12T18:07:21.141Z,1.30
2023-03-12T18:09:47.836Z,1.27
2023-03-12T18:12:14.483Z,1.27
2023-03-12T18:14:41.617Z,1.10
2023-03-12T18:17:08.305Z,1.20
2023-03-12T18:19:35.669Z,1.40
2023-03-12T18:22:02.495Z,1.50
2023-03-12T18:24:29.391Z,1.50
2023-03-12T18:26:56.372Z,1.60
2023-03-12T18:29:23.440Z,1.27
2023-03-12T18:31:50.014Z,1.50
2023-03-12T18:34:16.705Z,1.52
2023-03-12T18:36:43.490Z,1.40
2023-03-12T18:39:10.406Z,1.55
2023-03-12T18:41:39.433Z,1.48
2023-03-12T18:44:07.530Z,1.10
2023-03-12T18:46:34.481Z,1.50
2023-03-12T18:49:07.864Z,1.40
2023-03-12T18:51:34.760Z,1.55
2023-03-12T18:54:01.701Z,1.60
2023-03-12T18:56:28.995Z,1.90
2023-03-12T18:58:55.801Z,1.60
2023-03-12T19:01:22.710Z,1.98
2023-03-12T19:03:49.439Z,1.50
2023-03-12T19:06:16.828Z,1.70
2023-03-12T19:08:43.899Z,1.40
2023-03-12T19:11:13.448Z,1.80
2023-03-12T19:13:40.369Z,1.90
2023-03-12T19:16:11.113Z,2.00
2023-03-12T19:18:38.476Z,1.58
2023-03-12T19:21:06.935Z,1.80
2023-03-12T19:23:33.548Z,2.05
2023-03-12T19:26:00.022Z,2.17
2023-03-12T19:28:29.529Z,2.05
2023-03-12T19:31:03.670Z,2.05
2023-03-12T19:33:30.928Z,1.85
2023-03-12T19:35:57.848Z,2.10
2023-03-12T19:38:24.479Z,1.80
2023-03-12T19:40:52.695Z,2.03
2023-03-12T19:43:20.396Z,2.28
2023-03-12T19:45:47.583Z,2.30
2023-03-12T19:48:14.822Z,2.38
2023-03-12T19:50:41.736Z,2.10
2023-03-12T19:53:08.440Z,2.15
2023-03-12T19:55:34.963Z,2.22
2023-03-12T19:58:01.691Z,2.45
2023-03-12T20:00:28.756Z,2.17
2023-03-12T20:02:55.742Z,2.20
2023-03-12T20:05:22.404Z,2.10
2023-03-12T20:07:49.219Z,2.03
2023-03-12T20:10:15.726Z,2.28
2023-03-12T20:12:42.313Z,1.98
2023-03-12T20:15:09.721Z,2.17
2023-03-12T20:17:37.199Z,2.20
2023-03-12T20:20:05.761Z,2.63
2023-03-12T20:22:38.219Z,2.15
2023-03-12T20:25:25.997Z,2.40
2023-03-12T20:28:06.591Z,2.20
2023-03-12T20:30:37.361Z,2.15
2023-03-12T20:33:05.808Z,2.60
2023-03-12T20:35:32.774Z,1.98
2023-03-12T20:37:59.457Z,2.50
2023-03-12T20:40:26.087Z,2.38
2023-03-12T20:42:52.748Z,2.28
2023-03-12T20:45:19.437Z,2.55
2023-03-12T20:47:46.009Z,3.33
2023-03-12T20:50:12.615Z,3.00
2023-03-12T20:52:40.406Z,3.58
2023-03-12T20:55:07.082Z,3.95
2023-03-12T20:57:34.035Z,3.92
2023-03-12T21:00:00.846Z,3.83
2023-03-12T21:02:28.848Z,4.10
2023-03-12T21:04:57.906Z,4.38
2023-03-12T21:07:24.778Z,4.18
2023-03-12T21:09:51.343Z,3.97
2023-03-12T21:12:17.884Z,3.92
2023-03-12T21:14:44.823Z,4.22
2023-03-12T21:17:14.859Z,4.35
2023-03-12T21:19:41.690Z,4.90
2023-03-12T21:22:08.660Z,4.68
2023-03-12T21:24:35.742Z,4.40
2023-03-12T21:27:02.464Z,4.90
2023-03-12T21:29:29.349Z,4.72
2023-03-12T21:32:02.030Z,4.10
2023-03-12T21:34:41.853Z,4.82
2023-03-12T21:37:11.281Z,4.68
2023-03-12T21:39:38.128Z,4.50
2023-03-12T21:42:07.517Z,4.63
2023-03-12T21:44:37.202Z,4.70
2023-03-12T21:47:07.330Z,5.25
2023-03-12T21:49:34.899Z,4.47
2023-03-12T21:52:02.146Z,4.00
2023-03-12T21:54:32.994Z,5.20
2023-03-12T21:57:03.471Z,5.07
2023-03-12T21:59:30.431Z,5.30
2023-03-12T22:01:57.046Z,5.10
2023-03-12T22:04:23.992Z,5.00
2023-03-12T22:06:51.060Z,5.05
2023-03-12T22:09:17.937Z,4.97
2023-03-12T22:11:44.575Z,5.10
2023-03-12T22:14:11.181Z,5.20
2023-03-12T22:16:37.883Z,5.38
2023-03-12T22:19:04.532Z,5.38
2023-03-12T22:21:34.112Z,5.03
2023-03-12T22:24:01.120Z,5.13
2023-03-12T22:26:27.873Z,5.30
2023-03-12T22:28:55.858Z,5.00
2023-03-12T22:31:25.588Z,5.20
2023-03-12T22:33:52.298Z,4.80
2023-03-12T22:36:19.370Z,4.90
2023-03-12T22:38:47.710Z,4.75
2023-03-12T22:41:19.379Z,5.10
2023-03-12T22:43:46.550Z,5.53
2023-03-12T22:46:13.704Z,5.40
2023-03-12T22:48:40.333Z,5.07
2023-03-12T22:51:07.065Z,4.75
2023-03-12T22:53:34.442Z,5.35
2023-03-12T22:56:02.417Z,5.43
2023-03-12T22:58:29.009Z,4.80
2023-03-12T23:01:02.980Z,5.65
2023-03-12T23:03:30.359Z,4.93
2023-03-12T23:05:56.921Z,4.53
2023-03-12T23:08:23.936Z,4.30
2023-03-12T23:11:00.742Z,4.57
2023-03-12T23:13:28.255Z,4.63
2023-03-12T23:15:54.782Z,5.15
2023-03-12T23:18:21.500Z,5.28
2023-03-12T23:20:48.038Z,4.75
2023-03-12T23:23:15.750Z,4.15
2023-03-12T23:25:42.226Z,4.35
2023-03-12T23:28:08.670Z,3.95
2023-03-12T23:30:35.275Z,4.47
2023-03-12T23:33:02.086Z,4.38
2023-03-12T23:35:28.848Z,3.83
2023-03-12T23:37:56.457Z,4.53
2023-03-12T23:40:22.991Z,3.55
2023-03-12T23:42:49.425Z,4.65
2023-03-12T23:45:16.176Z,4.40
2023-03-12T23:47:42.600Z,4.03
2023-03-12T23:50:09.553Z,4.45
2023-03-12T23:52:36.049Z,4.15
2023-03-12T23:55:02.624Z,4.30
2023-03-12T23:57:29.418Z,3.72
2023-03-12T23:59:56.149Z,4.47
